33N

Delaware Airpark

Dover/Cheswold, Delaware, USA
METAR K33N 210915Z AUTO 30015G30KT 10SM CLR M10/M22 A3003 RMK A01
Observed Flight Rules
Jan-21 @ 09:15 UTC (34 minutes ago) Visual Flight Rules
Wind Visibility Clouds
300° at 15 knots
 Gusting to 30 knots
10 miles
  • Clear skies
Temperatures Readings
Current -10°C / 14°F
Dewpoint -22°C / -8°F
Humidity 37%
Altimeter 30.03" Hg
Pressure 1016.92 hPa
Elevation 17
METAR K33N 210915Z AUTO 30015G30KT 10SM CLR M10/M22 A3003 RMK A01
Observed Flight Rules
Jan-21 @ 09:15 UTC
(34 minutes ago)
VFR
Wind Visibility
300° at 15 knots
 Gusting to 30 knots
10 miles
Clouds
  • Clear skies
Temperature Dewpoint
-10°C / 14°F -22°C / -8°F
Humidity Altimeter Pressure
37% 30.03" Hg 1016.92 hPa